Time;durP1;ratioP1;P1;durP2;ratioP2;P2;SDS_P1;SDS_P2;PMS_P1;PMS_P2;Temp;Humidity;BMP_temperature;BMP_pressure;BME280_temperature;BME280_humidity;BME280_pressure;Samples;Min_cycle;Max_cycle;Signal;HPM_P1;HPM_P2
2022/09/14 00:00:30;;;;;;;9.87;1.93;;;;;;;;;;5323125;28;20318;-66
2022/09/14 00:03:02;;;;;;;11.25;3.00;;;;;;;;;;5323936;28;20276;-66
2022/09/14 00:05:34;;;;;;;9.65;3.20;;;;;;;;;;5322493;28;20020;-66
2022/09/14 00:08:05;;;;;;;13.27;3.10;;;;;;;;;;5327261;28;20399;-66
2022/09/14 00:10:37;;;;;;;10.88;3.10;;;;;;;;;;5327341;28;20022;-65
2022/09/14 00:13:08;;;;;;;15.25;3.53;;;;;;;;;;5327032;28;20080;-65
2022/09/14 00:15:42;;;;;;;10.30;3.60;;;;;;;;;;5327467;28;20016;-65
2022/09/14 00:18:13;;;;;;;11.00;3.05;;;;;;;;;;5327896;27;20024;-65
2022/09/14 00:20:44;;;;;;;10.88;2.70;;;;;;;;;;5326528;28;20044;-65
2022/09/14 00:23:15;;;;;;;12.13;2.85;;;;;;;;;;5327659;28;20107;-65
2022/09/14 00:25:47;;;;;;;8.30;2.15;;;;;;;;;;5326969;28;20257;-65
2022/09/14 00:28:18;;;;;;;9.73;2.35;;;;;;;;;;5327085;28;20277;-65
2022/09/14 00:30:49;;;;;;;11.80;2.78;;;;;;;;;;5327158;27;20016;-65
2022/09/14 00:33:20;;;;;;;12.50;3.05;;;;;;;;;;5326803;28;20293;-65
2022/09/14 00:35:51;;;;;;;13.35;2.63;;;;;;;;;;5327014;28;20269;-65
2022/09/14 00:38:25;;;;;;;8.00;2.47;;;;;;;;;;5327676;28;20458;-65
2022/09/14 00:40:57;;;;;;;9.27;2.47;;;;;;;;;;5327068;27;20023;-65
2022/09/14 00:43:28;;;;;;;12.85;3.15;;;;;;;;;;5326909;28;20024;-66
2022/09/14 00:46:01;;;;;;;9.18;2.38;;;;;;;;;;5327310;28;20108;-65
2022/09/14 00:48:32;;;;;;;11.95;3.13;;;;;;;;;;5325727;28;20211;-66
2022/09/14 00:51:03;;;;;;;9.05;3.58;;;;;;;;;;5327377;27;20045;-65
2022/09/14 00:53:35;;;;;;;10.63;3.08;;;;;;;;;;5326665;28;20330;-65
2022/09/14 00:56:06;;;;;;;10.07;3.45;;;;;;;;;;5326507;28;20022;-65
2022/09/14 00:58:37;;;;;;;12.93;2.90;;;;;;;;;;5326470;28;20027;-65
2022/09/14 01:01:09;;;;;;;10.57;2.88;;;;;;;;;;5327027;28;20461;-65
2022/09/14 01:03:40;;;;;;;8.27;2.20;;;;;;;;;;5325868;28;20065;-65
2022/09/14 01:06:11;;;;;;;8.73;2.70;;;;;;;;;;5327002;28;20023;-66
2022/09/14 01:08:51;;;;;;;13.73;3.10;;;;;;;;;;5325466;28;20320;-65
2022/09/14 01:11:38;;;;;;;10.90;3.33;;;;;;;;;;5326740;28;20028;-65
2022/09/14 01:14:19;;;;;;;9.18;3.22;;;;;;;;;;5326917;28;20115;-66
2022/09/14 01:16:59;;;;;;;10.52;4.28;;;;;;;;;;5325243;28;20015;-66
2022/09/14 01:19:56;;;;;;;13.43;3.90;;;;;;;;;;5325846;28;20024;-66
2022/09/14 01:22:43;;;;;;;14.10;4.80;;;;;;;;;;5325249;28;20069;-66
2022/09/14 01:25:27;;;;;;;16.25;4.63;;;;;;;;;;5326645;28;20023;-67
2022/09/14 01:28:02;;;;;;;15.38;4.78;;;;;;;;;;5326351;28;20019;-66
2022/09/14 01:30:34;;;;;;;12.38;4.15;;;;;;;;;;5325217;28;20027;-67
2022/09/14 01:33:12;;;;;;;10.05;3.63;;;;;;;;;;5326431;28;20026;-67
2022/09/14 01:35:53;;;;;;;11.55;3.08;;;;;;;;;;5325618;28;20026;-66
2022/09/14 01:38:41;;;;;;;11.75;3.15;;;;;;;;;;5325162;28;20023;-67
2022/09/14 01:41:13;;;;;;;12.73;2.97;;;;;;;;;;5326156;28;20080;-66
2022/09/14 01:43:56;;;;;;;13.80;2.97;;;;;;;;;;5324876;28;20277;-66
2022/09/14 01:46:32;;;;;;;11.52;2.92;;;;;;;;;;5325524;28;20051;-66
2022/09/14 01:49:09;;;;;;;11.52;2.17;;;;;;;;;;5326196;28;20432;-66
2022/09/14 01:51:46;;;;;;;10.00;2.42;;;;;;;;;;5324958;28;20016;-66
2022/09/14 01:54:22;;;;;;;5.80;2.15;;;;;;;;;;5325807;28;20130;-66
2022/09/14 01:56:59;;;;;;;9.40;2.35;;;;;;;;;;5325425;28;20012;-65
2022/09/14 01:59:36;;;;;;;11.90;2.55;;;;;;;;;;5324533;28;20020;-66
2022/09/14 02:02:13;;;;;;;8.70;2.15;;;;;;;;;;5325903;28;20061;-67
2022/09/14 02:04:49;;;;;;;8.07;1.77;;;;;;;;;;5324298;28;20032;-67
2022/09/14 02:07:20;;;;;;;11.18;2.30;;;;;;;;;;5325658;27;20535;-67
2022/09/14 02:09:52;;;;;;;13.85;2.08;;;;;;;;;;5324896;28;20028;-66
2022/09/14 02:12:24;;;;;;;7.50;2.20;;;;;;;;;;5324661;28;20042;-67
2022/09/14 02:14:55;;;;;;;8.90;1.40;;;;;;;;;;5325400;27;20073;-66
2022/09/14 02:17:27;;;;;;;8.23;1.55;;;;;;;;;;5324953;28;20011;-67
2022/09/14 02:20:00;;;;;;;13.98;2.20;;;;;;;;;;5324709;28;20026;-67
2022/09/14 02:22:31;;;;;;;10.05;2.08;;;;;;;;;;5324719;28;20024;-67
2022/09/14 02:25:03;;;;;;;9.30;2.33;;;;;;;;;;5325490;28;20348;-67
2022/09/14 02:27:34;;;;;;;14.75;2.17;;;;;;;;;;5323952;28;20266;-67
2022/09/14 02:30:05;;;;;;;9.30;1.50;;;;;;;;;;5324251;28;20007;-67
2022/09/14 02:32:44;;;;;;;8.68;2.00;;;;;;;;;;5323873;28;20500;-67
2022/09/14 02:35:25;;;;;;;10.63;2.17;;;;;;;;;;5325337;28;20358;-67
2022/09/14 02:38:14;;;;;;;12.18;1.88;;;;;;;;;;5324925;28;20016;-67
2022/09/14 02:40:46;;;;;;;10.90;1.55;;;;;;;;;;5323629;28;20428;-67
2022/09/14 02:43:20;;;;;;;10.43;2.78;;;;;;;;;;5324895;28;20072;-67
2022/09/14 02:45:59;;;;;;;10.38;2.17;;;;;;;;;;5324643;28;20015;-67
2022/09/14 02:48:30;;;;;;;10.45;1.40;;;;;;;;;;5323433;28;20048;-67
2022/09/14 02:51:06;;;;;;;11.05;1.90;;;;;;;;;;5324773;28;20140;-67
2022/09/14 02:53:46;;;;;;;9.50;2.10;;;;;;;;;;5323860;28;20289;-67
2022/09/14 02:56:18;;;;;;;9.77;1.98;;;;;;;;;;5324759;28;20023;-67
2022/09/14 02:58:49;;;;;;;8.98;1.85;;;;;;;;;;5324055;28;20046;-67
2022/09/14 03:01:21;;;;;;;12.20;1.83;;;;;;;;;;5323796;28;20020;-67
2022/09/14 03:03:52;;;;;;;8.93;1.45;;;;;;;;;;5323777;28;20379;-67
2022/09/14 03:06:23;;;;;;;14.85;1.80;;;;;;;;;;5324440;28;20072;-67
2022/09/14 03:08:54;;;;;;;7.25;1.80;;;;;;;;;;5323436;28;20064;-67
2022/09/14 03:11:25;;;;;;;11.95;1.80;;;;;;;;;;5323903;28;20069;-67
2022/09/14 03:13:56;;;;;;;10.37;2.30;;;;;;;;;;5324292;28;20289;-67
2022/09/14 03:16:28;;;;;;;11.80;2.35;;;;;;;;;;5322981;28;20269;-66
2022/09/14 03:18:59;;;;;;;9.25;1.75;;;;;;;;;;5324217;28;20272;-68
2022/09/14 03:21:30;;;;;;;9.77;2.20;;;;;;;;;;5323585;28;20019;-66
2022/09/14 03:24:01;;;;;;;8.60;1.88;;;;;;;;;;5323691;28;20373;-67
2022/09/14 03:26:35;;;;;;;18.25;2.58;;;;;;;;;;5323701;28;20014;-67
2022/09/14 03:29:06;;;;;;;10.23;2.25;;;;;;;;;;5323313;28;20044;-68
2022/09/14 03:31:38;;;;;;;10.38;2.13;;;;;;;;;;5323416;28;20485;-68
2022/09/14 03:34:09;;;;;;;11.02;3.08;;;;;;;;;;5323992;28;20428;-68
2022/09/14 03:36:40;;;;;;;9.32;3.00;;;;;;;;;;5322792;28;20023;-68
2022/09/14 03:39:11;;;;;;;4.53;1.95;;;;;;;;;;5323913;28;20023;-67
2022/09/14 03:41:42;;;;;;;8.50;2.13;;;;;;;;;;5323317;28;20277;-67
2022/09/14 03:44:14;;;;;;;7.47;2.40;;;;;;;;;;5323339;28;20027;-68
2022/09/14 03:46:45;;;;;;;12.73;2.80;;;;;;;;;;5323177;28;20307;-68
2022/09/14 03:49:16;;;;;;;10.07;3.30;;;;;;;;;;5324077;28;20058;-68
2022/09/14 03:51:47;;;;;;;8.33;2.43;;;;;;;;;;5322535;28;20019;-68
2022/09/14 03:54:18;;;;;;;13.70;2.35;;;;;;;;;;5324110;28;20285;-68
2022/09/14 03:56:50;;;;;;;9.85;2.83;;;;;;;;;;5323388;28;20378;-67
2022/09/14 03:59:21;;;;;;;13.75;2.38;;;;;;;;;;5323252;28;20333;-68
2022/09/14 04:01:53;;;;;;;13.10;2.45;;;;;;;;;;5323163;28;20052;-68
2022/09/14 04:04:24;;;;;;;9.07;2.00;;;;;;;;;;5322672;28;20138;-68
2022/09/14 04:06:55;;;;;;;10.55;2.58;;;;;;;;;;5323385;28;20016;-67
2022/09/14 04:09:26;;;;;;;6.80;2.22;;;;;;;;;;5323031;28;20448;-68
2022/09/14 04:11:57;;;;;;;10.27;2.10;;;;;;;;;;5322894;28;20266;-68
2022/09/14 04:14:28;;;;;;;8.43;1.92;;;;;;;;;;5323030;28;20322;-68
2022/09/14 04:17:00;;;;;;;9.48;1.65;;;;;;;;;;5323581;28;20277;-66
2022/09/14 04:19:34;;;;;;;9.23;1.70;;;;;;;;;;5322218;28;20276;-66
2022/09/14 04:22:05;;;;;;;6.55;1.98;;;;;;;;;;5323679;28;20198;-66
2022/09/14 04:24:36;;;;;;;8.75;2.22;;;;;;;;;;5322774;28;20150;-66
2022/09/14 04:27:07;;;;;;;7.32;1.55;;;;;;;;;;5322760;28;20253;-66
2022/09/14 04:29:38;;;;;;;11.93;1.70;;;;;;;;;;5323183;28;20027;-67
2022/09/14 04:32:10;;;;;;;12.43;1.88;;;;;;;;;;5323244;28;20293;-67
2022/09/14 04:34:41;;;;;;;6.85;2.17;;;;;;;;;;5322536;28;20026;-67
2022/09/14 04:37:12;;;;;;;7.28;1.40;;;;;;;;;;5323585;28;20011;-67
2022/09/14 04:39:43;;;;;;;10.90;1.25;;;;;;;;;;5321973;28;20276;-67
2022/09/14 04:42:14;;;;;;;6.43;1.40;;;;;;;;;;5323516;28;20289;-67
2022/09/14 04:44:45;;;;;;;8.45;2.55;;;;;;;;;;5323027;28;20270;-67
2022/09/14 04:47:16;;;;;;;8.07;1.60;;;;;;;;;;5322425;28;20046;-68
2022/09/14 04:49:48;;;;;;;7.47;1.80;;;;;;;;;;5322847;28;20318;-68
2022/09/14 04:52:19;;;;;;;10.00;1.60;;;;;;;;;;5323444;28;20305;-69
2022/09/14 04:54:50;;;;;;;13.60;1.90;;;;;;;;;;5325663;28;20352;-68
2022/09/14 04:57:21;;;;;;;10.68;1.80;;;;;;;;;;5326999;28;20488;-68
2022/09/14 04:59:53;;;;;;;11.85;2.28;;;;;;;;;;5326245;28;20473;-68
2022/09/14 05:02:25;;;;;;;7.40;1.30;;;;;;;;;;5325776;28;20505;-68
2022/09/14 05:04:57;;;;;;;7.32;1.27;;;;;;;;;;5326886;28;20270;-68
2022/09/14 05:07:28;;;;;;;8.90;0.90;;;;;;;;;;5325565;27;20022;-68
2022/09/14 05:10:00;;;;;;;9.70;1.92;;;;;;;;;;5326837;28;20020;-68
2022/09/14 05:12:31;;;;;;;7.78;1.20;;;;;;;;;;5326080;28;20032;-67
2022/09/14 05:15:02;;;;;;;8.55;0.82;;;;;;;;;;5325978;28;20012;-68
2022/09/14 05:17:34;;;;;;;7.18;1.42;;;;;;;;;;5326159;27;20019;-68
2022/09/14 05:20:05;;;;;;;5.93;1.25;;;;;;;;;;5326600;28;20008;-67
2022/09/14 05:22:36;;;;;;;7.38;1.10;;;;;;;;;;5325247;28;20031;-68
2022/09/14 05:25:08;;;;;;;9.02;1.92;;;;;;;;;;5326492;28;20068;-68
2022/09/14 05:27:39;;;;;;;10.13;1.00;;;;;;;;;;5325701;28;20280;-68
2022/09/14 05:30:10;;;;;;;7.67;1.73;;;;;;;;;;5325897;28;20019;-68
2022/09/14 05:32:41;;;;;;;6.88;1.30;;;;;;;;;;5325575;28;20297;-66
2022/09/14 05:35:13;;;;;;;10.13;1.92;;;;;;;;;;5326212;28;20518;-67
2022/09/14 05:37:44;;;;;;;9.48;1.70;;;;;;;;;;5324842;28;20346;-67
2022/09/14 05:40:15;;;;;;;6.25;1.50;;;;;;;;;;5325860;27;20026;-66
2022/09/14 05:42:46;;;;;;;11.90;1.55;;;;;;;;;;5324590;28;20274;-67
2022/09/14 05:45:17;;;;;;;10.38;2.08;;;;;;;;;;5325874;28;20024;-67
2022/09/14 05:47:48;;;;;;;8.90;1.67;;;;;;;;;;5325151;28;20290;-67
2022/09/14 05:50:22;;;;;;;8.85;2.10;;;;;;;;;;5325111;28;20545;-66
2022/09/14 05:52:53;;;;;;;10.07;2.10;;;;;;;;;;5325046;28;20061;-66
2022/09/14 05:55:25;;;;;;;8.82;1.73;;;;;;;;;;5325375;28;20454;-66
2022/09/14 05:57:56;;;;;;;8.27;2.10;;;;;;;;;;5325112;28;20423;-66
2022/09/14 06:00:28;;;;;;;8.15;1.92;;;;;;;;;;5325244;28;20102;-67
2022/09/14 06:02:59;;;;;;;9.98;2.70;;;;;;;;;;5325476;28;20280;-67
2022/09/14 06:05:30;;;;;;;8.47;2.00;;;;;;;;;;5324441;28;20375;-67
2022/09/14 06:08:01;;;;;;;10.43;2.63;;;;;;;;;;5325632;28;20258;-68
2022/09/14 06:10:33;;;;;;;8.90;1.90;;;;;;;;;;5324864;28;20099;-68
2022/09/14 06:13:04;;;;;;;10.80;3.20;;;;;;;;;;5324673;28;20055;-67
2022/09/14 06:15:35;;;;;;;9.38;2.72;;;;;;;;;;5324675;28;20269;-67
2022/09/14 06:18:06;;;;;;;11.85;2.70;;;;;;;;;;5324521;28;20270;-67
2022/09/14 06:20:37;;;;;;;7.13;2.80;;;;;;;;;;5324650;28;20723;-67
2022/09/14 06:23:08;;;;;;;11.82;3.58;;;;;;;;;;5325136;28;20385;-67
2022/09/14 06:25:40;;;;;;;9.18;3.85;;;;;;;;;;5324029;28;20477;-67
2022/09/14 06:28:11;;;;;;;10.05;3.70;;;;;;;;;;5325108;28;20103;-67
2022/09/14 06:30:43;;;;;;;10.85;3.38;;;;;;;;;;5324503;28;20258;-67
2022/09/14 06:33:14;;;;;;;7.47;3.78;;;;;;;;;;5324309;28;20436;-66
2022/09/14 06:35:58;;;;;;;8.10;3.55;;;;;;;;;;5324489;28;20019;-67
2022/09/14 06:38:29;;;;;;;10.23;3.00;;;;;;;;;;5324173;28;20026;-67
2022/09/14 06:41:01;;;;;;;17.83;3.88;;;;;;;;;;5324240;28;20458;-66
2022/09/14 06:43:33;;;;;;;8.60;3.08;;;;;;;;;;5324129;28;20020;-66
2022/09/14 06:46:10;;;;;;;9.18;2.97;;;;;;;;;;5323982;28;20015;-65
2022/09/14 06:48:43;;;;;;;11.18;3.20;;;;;;;;;;5324201;28;20127;-66
2022/09/14 06:51:16;;;;;;;12.48;3.40;;;;;;;;;;5324682;28;20023;-66
2022/09/14 06:53:47;;;;;;;9.25;3.47;;;;;;;;;;5323171;28;20544;-65
2022/09/14 06:56:19;;;;;;;8.50;4.18;;;;;;;;;;5324589;28;20020;-66
2022/09/14 06:58:51;;;;;;;8.85;3.45;;;;;;;;;;5323954;28;20023;-68
2022/09/14 07:01:22;;;;;;;8.10;3.38;;;;;;;;;;5323583;28;20028;-66
2022/09/14 07:03:53;;;;;;;12.73;3.40;;;;;;;;;;5323847;28;20523;-67
2022/09/14 07:06:25;;;;;;;11.13;3.00;;;;;;;;;;5324235;28;20012;-67
2022/09/14 07:08:56;;;;;;;8.88;2.83;;;;;;;;;;5323406;28;20033;-66
2022/09/14 07:11:28;;;;;;;14.10;2.87;;;;;;;;;;5323654;28;20015;-66
2022/09/14 07:14:00;;;;;;;10.57;3.00;;;;;;;;;;5323251;28;20793;-66
2022/09/14 07:16:33;;;;;;;11.60;3.55;;;;;;;;;;5323456;28;20023;-66
2022/09/14 07:19:05;;;;;;;11.07;2.88;;;;;;;;;;5324270;28;20012;-66
2022/09/14 07:21:37;;;;;;;10.43;3.70;;;;;;;;;;5322941;28;20519;-66
2022/09/14 07:24:09;;;;;;;11.63;3.15;;;;;;;;;;5323962;28;20114;-67
2022/09/14 07:26:41;;;;;;;11.68;3.30;;;;;;;;;;5323625;28;20088;-66
2022/09/14 07:29:13;;;;;;;8.55;3.17;;;;;;;;;;5323437;28;20026;-67
2022/09/14 07:31:46;;;;;;;8.95;3.65;;;;;;;;;;5323513;28;20063;-67
2022/09/14 07:34:18;;;;;;;13.30;3.92;;;;;;;;;;5323885;28;20083;-67
2022/09/14 07:36:49;;;;;;;9.25;3.80;;;;;;;;;;5322573;27;20012;-67
2022/09/14 07:39:20;;;;;;;7.97;3.92;;;;;;;;;;5323805;28;20509;-67
2022/09/14 07:41:52;;;;;;;9.18;4.13;;;;;;;;;;5323164;28;20046;-67
2022/09/14 07:44:23;;;;;;;6.75;3.47;;;;;;;;;;5318604;28;20378;-67
2022/09/14 07:46:54;;;;;;;7.27;4.03;;;;;;;;;;5322745;28;20162;-67
2022/09/14 07:49:26;;;;;;;10.85;4.35;;;;;;;;;;5322137;28;20380;-68
2022/09/14 07:51:57;;;;;;;6.97;3.88;;;;;;;;;;5323777;28;20015;-68
2022/09/14 07:54:28;;;;;;;9.13;4.60;;;;;;;;;;5323104;28;20096;-69
2022/09/14 07:56:59;;;;;;;10.07;4.35;;;;;;;;;;5322874;28;20049;-69
2022/09/14 07:59:30;;;;;;;9.43;4.03;;;;;;;;;;5322989;28;20020;-70
2022/09/14 08:02:03;;;;;;;9.68;4.18;;;;;;;;;;5323435;28;20367;-69
2022/09/14 08:04:35;;;;;;;7.20;3.97;;;;;;;;;;5321873;28;20698;-69
2022/09/14 08:07:06;;;;;;;11.13;4.57;;;;;;;;;;5323563;28;20026;-68
2022/09/14 08:09:38;;;;;;;9.63;5.25;;;;;;;;;;5322551;28;20023;-68
2022/09/14 08:12:09;;;;;;;9.23;5.05;;;;;;;;;;5322449;28;20043;-67
2022/09/14 08:14:41;;;;;;;13.98;4.88;;;;;;;;;;5323069;28;20089;-68
2022/09/14 08:17:12;;;;;;;10.20;4.80;;;;;;;;;;5323363;28;20022;-68
2022/09/14 08:19:44;;;;;;;12.38;5.45;;;;;;;;;;5322212;28;20019;-67
2022/09/14 08:22:15;;;;;;;7.45;5.07;;;;;;;;;;5323231;28;20041;-68
2022/09/14 08:24:46;;;;;;;9.40;4.82;;;;;;;;;;5322052;28;20019;-67
2022/09/14 08:27:17;;;;;;;8.88;5.07;;;;;;;;;;5323742;28;20265;-67
2022/09/14 08:29:48;;;;;;;8.93;5.00;;;;;;;;;;5326688;28;20035;-66
2022/09/14 08:32:19;;;;;;;12.63;5.28;;;;;;;;;;5326506;28;20606;-67
2022/09/14 08:34:51;;;;;;;8.80;5.00;;;;;;;;;;5326640;28;20748;-67
2022/09/14 08:37:22;;;;;;;12.30;5.57;;;;;;;;;;5327091;28;20265;-66
2022/09/14 08:39:53;;;;;;;9.73;5.13;;;;;;;;;;5325906;28;20107;-67
2022/09/14 08:42:25;;;;;;;16.15;6.50;;;;;;;;;;5326973;28;20280;-67
2022/09/14 08:44:59;;;;;;;10.88;5.25;;;;;;;;;;5326917;28;20325;-67
2022/09/14 08:47:35;;;;;;;9.18;5.57;;;;;;;;;;5325453;28;20130;-67
2022/09/14 08:50:09;;;;;;;8.02;5.35;;;;;;;;;;5327140;28;20016;-67
2022/09/14 08:52:42;;;;;;;9.82;6.32;;;;;;;;;;5325690;28;20027;-67
2022/09/14 08:55:17;;;;;;;12.60;6.60;;;;;;;;;;5326997;28;20042;-66
2022/09/14 08:57:56;;;;;;;12.95;6.65;;;;;;;;;;5326094;28;20015;-67
2022/09/14 09:00:36;;;;;;;8.82;6.90;;;;;;;;;;5325448;28;20035;-68
2022/09/14 09:03:07;;;;;;;13.98;7.57;;;;;;;;;;5326825;28;20027;-68
2022/09/14 09:05:38;;;;;;;18.60;8.05;;;;;;;;;;5326017;28;20518;-67
2022/09/14 09:08:18;;;;;;;13.05;7.72;;;;;;;;;;5325874;27;20149;-67
2022/09/14 09:10:51;;;;;;;15.38;8.50;;;;;;;;;;5326135;28;20369;-68
2022/09/14 09:13:25;;;;;;;15.13;8.80;;;;;;;;;;5326576;28;20381;-67
2022/09/14 09:15:58;;;;;;;13.45;8.65;;;;;;;;;;5325188;28;20031;-67
2022/09/14 09:18:35;;;;;;;14.68;8.02;;;;;;;;;;5325270;28;20023;-67
2022/09/14 09:21:14;;;;;;;14.63;9.73;;;;;;;;;;5325500;28;20022;-66
2022/09/14 09:23:45;;;;;;;12.10;8.32;;;;;;;;;;5325611;28;20145;-67
2022/09/14 09:26:20;;;;;;;11.25;8.98;;;;;;;;;;5326325;28;20160;-68
2022/09/14 09:28:55;;;;;;;16.27;10.18;;;;;;;;;;5324865;28;20015;-66
2022/09/14 09:31:30;;;;;;;14.73;9.95;;;;;;;;;;5325128;28;20076;-67
2022/09/14 09:34:02;;;;;;;15.25;10.85;;;;;;;;;;5325358;28;20561;-67
2022/09/14 09:36:35;;;;;;;18.85;11.38;;;;;;;;;;5324641;28;20454;-66
2022/09/14 09:39:07;;;;;;;18.30;10.63;;;;;;;;;;5325472;28;20402;-66
2022/09/14 09:41:49;;;;;;;14.82;11.48;;;;;;;;;;5324773;28;20027;-66
2022/09/14 09:44:21;;;;;;;16.52;10.43;;;;;;;;;;5325898;28;20016;-66
2022/09/14 09:46:54;;;;;;;16.38;11.23;;;;;;;;;;5325150;28;20048;-67
2022/09/14 09:49:35;;;;;;;17.08;10.52;;;;;;;;;;5324489;28;20012;-67
2022/09/14 09:52:11;;;;;;;13.13;9.40;;;;;;;;;;5325526;28;20103;-67
2022/09/14 09:54:47;;;;;;;16.75;11.10;;;;;;;;;;5324731;27;20031;-67
2022/09/14 09:57:20;;;;;;;13.95;10.43;;;;;;;;;;5325015;28;20462;-67
2022/09/14 10:00:06;;;;;;;15.95;10.70;;;;;;;;;;5324782;28;20114;-67
2022/09/14 10:02:38;;;;;;;17.67;11.30;;;;;;;;;;5325037;28;20030;-67
2022/09/14 10:05:09;;;;;;;16.90;11.00;;;;;;;;;;5324947;28;20016;-67
2022/09/14 10:07:49;;;;;;;14.45;10.02;;;;;;;;;;5325149;28;20023;-67
2022/09/14 10:10:25;;;;;;;14.82;10.50;;;;;;;;;;5324693;28;20386;-67
2022/09/14 10:12:56;;;;;;;14.95;10.13;;;;;;;;;;5325215;28;20164;-66
2022/09/14 10:15:28;;;;;;;12.52;10.25;;;;;;;;;;5324636;28;20490;-67
2022/09/14 10:18:09;;;;;;;15.52;10.65;;;;;;;;;;5324589;28;20043;-67
2022/09/14 10:20:42;;;;;;;13.77;10.18;;;;;;;;;;5324470;28;20288;-66
2022/09/14 10:23:18;;;;;;;14.60;10.60;;;;;;;;;;5325168;28;20076;-67
2022/09/14 10:25:51;;;;;;;13.70;9.68;;;;;;;;;;5323720;28;20370;-67
2022/09/14 10:28:25;;;;;;;16.42;10.85;;;;;;;;;;5325332;28;20502;-67
2022/09/14 10:31:15;;;;;;;15.95;11.15;;;;;;;;;;5324141;28;20099;-66
2022/09/14 10:33:50;;;;;;;13.52;9.88;;;;;;;;;;5324215;28;20028;-65
2022/09/14 10:36:22;;;;;;;12.93;10.10;;;;;;;;;;5325068;28;20076;-66
2022/09/14 10:38:59;;;;;;;12.27;10.00;;;;;;;;;;5323638;28;20027;-67
2022/09/14 10:41:38;;;;;;;15.43;9.88;;;;;;;;;;5324202;28;20052;-68
2022/09/14 10:44:22;;;;;;;12.48;10.65;;;;;;;;;;5324495;28;20117;-66
2022/09/14 10:47:06;;;;;;;12.82;11.50;;;;;;;;;;5322902;28;20049;-67
2022/09/14 10:49:50;;;;;;;12.73;9.93;;;;;;;;;;5323569;28;20061;-67
2022/09/14 10:52:35;;;;;;;13.00;10.95;;;;;;;;;;5323600;28;20445;-66
2022/09/14 10:55:06;;;;;;;12.10;9.88;;;;;;;;;;5324845;28;20058;-67
2022/09/14 10:57:56;;;;;;;16.20;10.75;;;;;;;;;;5324041;28;20023;-67
2022/09/14 11:00:30;;;;;;;12.80;9.57;;;;;;;;;;5323084;28;20023;-66
2022/09/14 11:03:19;;;;;;;10.98;9.77;;;;;;;;;;5324507;28;20031;-66
2022/09/14 11:05:50;;;;;;;10.40;9.07;;;;;;;;;;5323707;28;20035;-65
2022/09/14 11:08:31;;;;;;;9.68;8.40;;;;;;;;;;5323768;28;20076;-66
2022/09/14 11:11:11;;;;;;;9.93;8.15;;;;;;;;;;5324517;28;20089;-67
2022/09/14 11:13:49;;;;;;;12.98;8.23;;;;;;;;;;5323120;28;20481;-65
2022/09/14 11:16:28;;;;;;;11.30;7.20;;;;;;;;;;5324440;28;20008;-66
2022/09/14 11:19:06;;;;;;;10.52;7.07;;;;;;;;;;5324121;28;20034;-66
2022/09/14 11:21:56;;;;;;;10.25;7.97;;;;;;;;;;5322813;28;20019;-67
2022/09/14 11:24:33;;;;;;;8.77;5.63;;;;;;;;;;5323774;28;20026;-66
2022/09/14 11:27:10;;;;;;;10.20;6.45;;;;;;;;;;5324164;28;20072;-67
2022/09/14 11:29:47;;;;;;;11.40;6.97;;;;;;;;;;5323522;28;20012;-67
2022/09/14 11:32:20;;;;;;;9.30;7.35;;;;;;;;;;5323852;28;20023;-67
2022/09/14 11:34:53;;;;;;;7.03;5.68;;;;;;;;;;5322752;28;20417;-66
2022/09/14 11:37:45;;;;;;;9.75;7.13;;;;;;;;;;5323584;28;20019;-67
2022/09/14 11:40:19;;;;;;;9.73;6.47;;;;;;;;;;5302105;28;20027;-67
2022/09/14 11:43:08;;;;;;;7.05;5.07;;;;;;;;;;5322381;28;20016;-67
2022/09/14 11:45:47;;;;;;;11.25;5.88;;;;;;;;;;5323275;28;20023;-67
2022/09/14 11:48:27;;;;;;;8.32;6.35;;;;;;;;;;5322915;28;20096;-67
2022/09/14 11:51:08;;;;;;;8.90;5.00;;;;;;;;;;5323712;28;20059;-68
2022/09/14 11:53:42;;;;;;;9.43;2.90;;;;;;;;;;5323138;28;20031;-66
2022/09/14 11:56:32;;;;;;;4.75;2.60;;;;;;;;;;5322913;28;20386;-67
2022/09/14 11:59:05;;;;;;;6.38;2.92;;;;;;;;;;5323768;28;20124;-67
2022/09/14 12:01:37;;;;;;;7.70;2.65;;;;;;;;;;5323771;28;20040;-66
2022/09/14 12:04:15;;;;;;;4.28;2.60;;;;;;;;;;5327321;28;20022;-67
2022/09/14 12:06:48;;;;;;;4.38;2.33;;;;;;;;;;5327160;28;20026;-66
2022/09/14 12:09:20;;;;;;;5.93;2.83;;;;;;;;;;5327684;28;20023;-66
2022/09/14 12:11:57;;;;;;;5.30;2.40;;;;;;;;;;5326705;28;20023;-67
2022/09/14 12:14:31;;;;;;;8.25;2.90;;;;;;;;;;5327514;28;20076;-66
2022/09/14 12:17:02;;;;;;;6.45;3.65;;;;;;;;;;5327111;28;20159;-67
2022/09/14 12:19:34;;;;;;;7.00;4.10;;;;;;;;;;5327211;28;20450;-67
2022/09/14 12:22:27;;;;;;;7.07;4.30;;;;;;;;;;5327665;28;20458;-66
2022/09/14 12:25:07;;;;;;;10.18;7.00;;;;;;;;;;5326883;28;20096;-68
2022/09/14 12:27:39;;;;;;;6.75;6.03;;;;;;;;;;5327067;28;20374;-66
2022/09/14 12:30:29;;;;;;;8.90;7.68;;;;;;;;;;5327749;28;20016;-68
2022/09/14 12:33:01;;;;;;;15.13;7.38;;;;;;;;;;5327685;28;20012;-66
2022/09/14 12:35:38;;;;;;;5.25;4.50;;;;;;;;;;5327127;28;20543;-66
2022/09/14 12:38:45;;;;;;;8.30;4.60;;;;;;;;;;5326843;28;20008;-66
2022/09/14 12:41:19;;;;;;;8.82;5.15;;;;;;;;;;5282593;28;20029;-67
2022/09/14 12:43:50;;;;;;;8.98;5.00;;;;;;;;;;5319951;28;20112;-66
2022/09/14 12:46:21;;;;;;;9.02;4.38;;;;;;;;;;5326181;28;20051;-67
2022/09/14 12:48:54;;;;;;;6.90;4.68;;;;;;;;;;5326568;28;20027;-67
2022/09/14 12:51:25;;;;;;;8.70;5.15;;;;;;;;;;5326308;28;20253;-67
2022/09/14 12:53:56;;;;;;;8.23;5.63;;;;;;;;;;5326300;28;20154;-67
2022/09/14 12:56:46;;;;;;;7.90;6.85;;;;;;;;;;5326834;28;20445;-67
2022/09/14 12:59:23;;;;;;;7.82;7.05;;;;;;;;;;5326243;28;20262;-66
2022/09/14 13:02:03;;;;;;;9.35;7.60;;;;;;;;;;5326444;28;20031;-66
2022/09/14 13:04:36;;;;;;;12.15;7.60;;;;;;;;;;5326375;28;20020;-67
2022/09/14 13:07:18;;;;;;;9.57;7.25;;;;;;;;;;5326125;28;20016;-66
2022/09/14 13:09:51;;;;;;;11.63;8.40;;;;;;;;;;5326384;28;20020;-66
2022/09/14 13:12:24;;;;;;;11.52;9.00;;;;;;;;;;5326654;28;20016;-68
2022/09/14 13:14:58;;;;;;;10.45;8.90;;;;;;;;;;5324916;28;20028;-69
2022/09/14 13:17:29;;;;;;;12.85;8.68;;;;;;;;;;5326041;28;20030;-67
2022/09/14 13:20:03;;;;;;;14.50;9.27;;;;;;;;;;5325761;28;20047;-67
2022/09/14 13:22:41;;;;;;;11.63;8.57;;;;;;;;;;5325659;28;20433;-66
2022/09/14 13:25:25;;;;;;;12.20;9.15;;;;;;;;;;5326776;28;20024;-69
2022/09/14 13:27:57;;;;;;;12.23;8.90;;;;;;;;;;5325713;28;20042;-66
2022/09/14 13:30:30;;;;;;;9.75;6.47;;;;;;;;;;5325997;28;20026;-67
2022/09/14 13:33:02;;;;;;;10.32;6.15;;;;;;;;;;5326270;28;20027;-67
2022/09/14 13:35:45;;;;;;;6.97;4.68;;;;;;;;;;5325056;28;20026;-66
2022/09/14 13:38:21;;;;;;;6.55;4.63;;;;;;;;;;5326600;28;20027;-67
2022/09/14 13:40:54;;;;;;;10.75;5.80;;;;;;;;;;5324954;28;20020;-67
2022/09/14 13:43:25;;;;;;;7.07;4.85;;;;;;;;;;5325536;28;20015;-69
2022/09/14 13:45:56;;;;;;;7.15;4.88;;;;;;;;;;5326242;28;20027;-70
2022/09/14 13:48:28;;;;;;;9.00;4.00;;;;;;;;;;5324774;28;20052;-69
2022/09/14 13:50:59;;;;;;;5.43;3.20;;;;;;;;;;5321102;28;20019;-68
2022/09/14 13:53:36;;;;;;;4.97;3.08;;;;;;;;;;5325495;28;20036;-67
2022/09/14 13:56:30;;;;;;;7.80;3.97;;;;;;;;;;5324915;28;20042;-67
2022/09/14 13:59:14;;;;;;;7.72;4.22;;;;;;;;;;5326202;28;20386;-67
2022/09/14 14:01:45;;;;;;;6.03;3.33;;;;;;;;;;5325208;28;20035;-67
2022/09/14 14:04:33;;;;;;;6.47;3.92;;;;;;;;;;5324700;28;20019;-67
2022/09/14 14:07:07;;;;;;;8.90;4.93;;;;;;;;;;5326124;28;20020;-67
2022/09/14 14:09:41;;;;;;;10.52;6.30;;;;;;;;;;5324613;28;20065;-68
2022/09/14 14:12:20;;;;;;;9.23;6.75;;;;;;;;;;5325839;28;20493;-68
2022/09/14 14:14:52;;;;;;;10.13;7.38;;;;;;;;;;5324966;28;20024;-67
2022/09/14 14:17:29;;;;;;;12.38;8.13;;;;;;;;;;5324693;28;20474;-67
2022/09/14 14:20:19;;;;;;;10.20;7.75;;;;;;;;;;5325557;28;20016;-67
2022/09/14 14:22:56;;;;;;;10.75;8.43;;;;;;;;;;5324832;28;20020;-67
2022/09/14 14:25:30;;;;;;;10.30;8.30;;;;;;;;;;5323502;28;20524;-67
2022/09/14 14:28:03;;;;;;;9.30;8.18;;;;;;;;;;5325733;28;20023;-67
2022/09/14 14:30:36;;;;;;;12.55;8.90;;;;;;;;;;5324097;28;20022;-67
2022/09/14 14:33:12;;;;;;;13.95;9.30;;;;;;;;;;5325269;28;20494;-67
2022/09/14 14:35:44;;;;;;;14.52;9.50;;;;;;;;;;5324602;28;20084;-67
2022/09/14 14:38:15;;;;;;;9.75;8.75;;;;;;;;;;5324539;28;20094;-67
2022/09/14 14:40:47;;;;;;;8.47;7.60;;;;;;;;;;5324426;28;20099;-66
2022/09/14 14:43:20;;;;;;;10.35;7.32;;;;;;;;;;5324891;28;20261;-66
2022/09/14 14:45:55;;;;;;;10.77;7.57;;;;;;;;;;5323464;28;20019;-67
2022/09/14 14:48:27;;;;;;;10.82;7.18;;;;;;;;;;5324042;28;20047;-66
2022/09/14 14:50:58;;;;;;;11.70;7.88;;;;;;;;;;5324780;28;20384;-66
2022/09/14 14:53:30;;;;;;;10.32;7.13;;;;;;;;;;5323310;28;20019;-66
2022/09/14 14:56:01;;;;;;;7.97;5.80;;;;;;;;;;5324782;28;20012;-67
2022/09/14 14:58:32;;;;;;;8.10;4.60;;;;;;;;;;5323312;28;20020;-66
2022/09/14 15:01:03;;;;;;;5.80;4.20;;;;;;;;;;5324705;28;20272;-66
2022/09/14 15:03:35;;;;;;;6.20;4.13;;;;;;;;;;5324038;28;20278;-66
2022/09/14 15:06:22;;;;;;;7.53;5.23;;;;;;;;;;5323929;28;20072;-66
2022/09/14 15:08:54;;;;;;;10.27;5.25;;;;;;;;;;5323891;28;20273;-66
2022/09/14 15:11:26;;;;;;;8.85;4.88;;;;;;;;;;5323752;28;20033;-67
2022/09/14 15:13:57;;;;;;;7.10;4.95;;;;;;;;;;5323720;28;20475;-67
2022/09/14 15:16:28;;;;;;;11.55;5.78;;;;;;;;;;5323896;28;20090;-68